1879 Tropical Storm NOT_NAMED (1879285N11308)


IBTrACS version v04r00. Visit IBTrACS website for data access.
Please direct all questions to the IBTrACS Q and A forum

Storm track - Intensity - Wind Radii - Intensity Data - Source Data - All data

Summary Information

Storm ID 1879285N11308
Start Oct 11 12Z
Max Intensity 55 kt (Oct 16 00Z)
End Oct 20 12Z
ATCF IDs
Track status Best track data.

Storm track plot

Map of storm track

Intensity plots

Map of storm track

Radial wind information

No radial wind information for this storm


Position and Intensity Table

BASIN ISO_TIME_________ NATURE LAT LON MLC WIND
degrees north degrees east kts
NA 1879-10-11 12:00:00 TS 11.00 -52.00 30
NA 15:00:00 TS 11.36 -52.45 30
NA 18:00:00 TS 11.70 -52.90 30
NA 21:00:00 TS 12.01 -53.35 30
NA 1879-10-12 00:00:00 TS 12.30 -53.80 30
NA 03:00:00 TS 12.60 -54.26 32
NA 06:00:00 TS 12.90 -54.70 35
NA 09:00:00 TS 13.18 -55.12 35
NA 12:00:00 TS 13.50 -55.50 35
NA 15:00:00 TS 13.89 -55.87 35
NA 18:00:00 TS 14.30 -56.20 35
NA 21:00:00 TS 14.65 -56.51 35
NA 1879-10-13 00:00:00 TS 15.00 -56.80 35
NA 03:00:00 TS 15.40 -57.10 37
NA 06:00:00 TS 15.80 -57.40 40
NA 09:00:00 TS 16.14 -57.72 40
NA 12:00:00 TS 16.50 -58.00 40
NA 15:00:00 TS 16.98 -58.22 40
NA 18:00:00 TS 17.50 -58.40 40
NA 21:00:00 TS 18.00 -58.60 40
NA 1879-10-14 00:00:00 TS 18.50 -58.80 40
NA 03:00:00 TS 19.00 -59.01 42
NA 06:00:00 TS 19.50 -59.20 45
NA 09:00:00 TS 20.00 -59.39 45
NA 12:00:00 TS 20.50 -59.50 45
NA 15:00:00 TS 21.00 -59.48 45
NA 18:00:00 TS 21.50 -59.40 45
NA 21:00:00 TS 22.00 -59.36 45
NA 1879-10-15 00:00:00 TS 22.50 -59.30 45
NA 03:00:00 TS 23.00 -59.20 47
NA 06:00:00 TS 23.50 -59.10 50
NA 09:00:00 TS 23.98 -59.12 50
NA 12:00:00 TS 24.50 -59.00 50
NA 15:00:00 TS 25.08 -58.60 50
NA 18:00:00 TS 25.70 -57.90 50
NA 21:00:00 TS 26.34 -56.90 52
NA 1879-10-16 00:00:00 TS 27.00 -55.80 55
NA 03:00:00 TS 27.66 -54.91 55
NA 06:00:00 TS 28.30 -54.10 55
NA 09:00:00 TS 28.93 -53.29 55
NA 12:00:00 TS 29.50 -52.50 55
NA 15:00:00 TS 29.97 -51.70 55
NA 18:00:00 TS 30.40 -50.90 55
NA 21:00:00 TS 30.85 -50.10 55
NA 1879-10-17 00:00:00 TS 31.30 -49.30 55
NA 03:00:00 TS 31.74 -48.49 55
NA 06:00:00 TS 32.20 -47.70 55
NA 09:00:00 TS 32.71 -46.93 55
NA 12:00:00 TS 33.20 -46.20 55
NA 15:00:00 TS 33.58 -45.49 55
NA 18:00:00 TS 33.90 -44.80 55
NA 21:00:00 TS 34.20 -44.11 55
NA 1879-10-18 00:00:00 TS 34.50 -43.40 55
NA 03:00:00 TS 34.85 -42.65 55
NA 06:00:00 TS 35.20 -41.90 55
NA 09:00:00 TS 35.49 -41.19 55
NA 12:00:00 TS 35.80 -40.50 55
NA 15:00:00 TS 36.19 -39.81 55
NA 18:00:00 TS 36.60 -39.10 55
NA 21:00:00 TS 36.96 -38.35 55
NA 1879-10-19 00:00:00 TS 37.30 -37.60 55
NA 03:00:00 TS 37.65 -36.90 55
NA 06:00:00 TS 38.00 -36.20 55
NA 09:00:00 TS 38.36 -35.52 55
NA 12:00:00 TS 38.70 -34.70 55
NA 15:00:00 TS 39.01 -33.56 55
NA 18:00:00 TS 39.30 -32.30 55
NA 21:00:00 TS 39.60 -31.08 55
NA 1879-10-20 00:00:00 TS 39.90 -30.00 55
NA 03:00:00 TS 40.21 -29.19 55
NA 06:00:00 TS 40.50 -28.50 55
NA 09:00:00 TS 40.76 -27.77 55
NA 12:00:00 ET 41.00 -27.00 55

Source Information

Agency Information
USA
TOKYO
CMA
HKO
NEWDELHI
REUNION
BOM
NADI
WELLINGTON
DS824
TD9636
TD9635
NEUMANN
MLC

All available IBTrACS Data

SEASON BASIN SUBBASIN ISO_TIME_________ NATURE LAT LON DIST2LAND LANDFALL IFLAG USA SSHS MLC LAT MLC LON MLC CLASS MLC WIND STORM SPEED STORM DIR
Year degrees north degrees east km km 1 degrees north degrees east kts kts degrees
1879 NA NA 1879-10-11 12:00:00 TS 11.00 -52.00 620 620 _____________O -1 11.00 -52.00 TD 30 11 309
1879 NA NA 15:00:00 TS 11.36 -52.45 647 643 _____________P -1 11.36 -52.45 TD 30 11 308
1879 NA NA 18:00:00 TS 11.70 -52.90 665 662 _____________O -1 11.70 -52.90 TD 30 11 306
1879 NA NA 21:00:00 TS 12.01 -53.35 688 688 _____________P -1 12.01 -53.35 TD 30 11 304
1879 NA NA 1879-10-12 00:00:00 TS 12.30 -53.80 718 717 _____________O -1 12.30 -53.80 TD 30 11 304
1879 NA NA 03:00:00 TS 12.60 -54.26 728 720 _____________P -1 12.60 -54.26 TD 32 11 304
1879 NA NA 06:00:00 TS 12.90 -54.70 722 700 _____________O -1 12.90 -54.70 TS 35 10 305
1879 NA NA 09:00:00 TS 13.18 -55.12 700 675 _____________P -1 13.18 -55.12 TS 35 10 308
1879 NA NA 12:00:00 TS 13.50 -55.50 675 663 _____________O -1 13.50 -55.50 TS 35 10 314
1879 NA NA 15:00:00 TS 13.89 -55.87 660 654 _____________P -1 13.89 -55.87 TS 35 11 320
1879 NA NA 18:00:00 TS 14.30 -56.20 659 655 _____________O -1 14.30 -56.20 TS 35 10 321
1879 NA NA 21:00:00 TS 14.65 -56.51 655 654 _____________P -1 14.65 -56.51 TS 35 9 320
1879 NA NA 1879-10-13 00:00:00 TS 15.00 -56.80 662 662 _____________O -1 15.00 -56.80 TS 35 9 323
1879 NA NA 03:00:00 TS 15.40 -57.10 674 674 _____________P -1 15.40 -57.10 TS 37 10 324
1879 NA NA 06:00:00 TS 15.80 -57.40 691 691 _____________O -1 15.80 -57.40 TS 40 9 321
1879 NA NA 09:00:00 TS 16.14 -57.72 702 702 _____________P -1 16.14 -57.72 TS 40 9 321
1879 NA NA 12:00:00 TS 16.50 -58.00 725 725 _____________O -1 16.50 -58.00 TS 40 10 330
1879 NA NA 15:00:00 TS 16.98 -58.22 767 766 _____________P -1 16.98 -58.22 TS 40 11 339
1879 NA NA 18:00:00 TS 17.50 -58.40 766 740 _____________O -1 17.50 -58.40 TS 40 11 340
1879 NA NA 21:00:00 TS 18.00 -58.60 740 717 _____________P -1 18.00 -58.60 TS 40 11 339
1879 NA NA 1879-10-14 00:00:00 TS 18.50 -58.80 717 697 _____________O -1 18.50 -58.80 TS 40 11 339
1879 NA NA 03:00:00 TS 19.00 -59.01 698 682 _____________P -1 19.00 -59.01 TS 42 11 339
1879 NA NA 06:00:00 TS 19.50 -59.20 684 672 _____________O -1 19.50 -59.20 TS 45 11 340
1879 NA NA 09:00:00 TS 20.00 -59.39 675 671 _____________P -1 20.00 -59.39 TS 45 10 344
1879 NA NA 12:00:00 TS 20.50 -59.50 681 681 _____________O -1 20.50 -59.50 TS 45 10 355
1879 NA NA 15:00:00 TS 21.00 -59.48 701 701 _____________P -1 21.00 -59.48 TS 45 10 6
1879 NA NA 18:00:00 TS 21.50 -59.40 734 734 _____________O -1 21.50 -59.40 TS 45 10 6
1879 NA NA 21:00:00 TS 22.00 -59.36 761 761 _____________P -1 22.00 -59.36 TS 45 10 5
1879 NA NA 1879-10-15 00:00:00 TS 22.50 -59.30 800 800 _____________O -1 22.50 -59.30 TS 45 10 8
1879 NA NA 03:00:00 TS 23.00 -59.20 840 840 _____________P -1 23.00 -59.20 TS 47 10 11
1879 NA NA 06:00:00 TS 23.50 -59.10 883 883 _____________O -1 23.50 -59.10 TS 50 10 4
1879 NA NA 09:00:00 TS 23.98 -59.12 919 919 _____________P -1 23.98 -59.12 TS 50 10 5
1879 NA NA 12:00:00 TS 24.50 -59.00 964 964 _____________O -1 24.50 -59.00 TS 50 12 23
1879 NA NA 15:00:00 TS 25.08 -58.60 1040 1040 _____________P -1 25.08 -58.60 TS 50 16 40
1879 NA NA 18:00:00 TS 25.70 -57.90 1137 1137 _____________O -1 25.70 -57.90 TS 50 20 50
1879 NA NA 21:00:00 TS 26.34 -56.90 1256 1256 _____________P -1 26.34 -56.90 TS 52 23 55
1879 NA NA 1879-10-16 00:00:00 TS 27.00 -55.80 1389 1389 _____________O -1 27.00 -55.80 TS 55 22 53
1879 NA NA 03:00:00 TS 27.66 -54.91 1507 1507 _____________P -1 27.66 -54.91 TS 55 20 49
1879 NA NA 06:00:00 TS 28.30 -54.10 1610 1610 _____________O -1 28.30 -54.10 TS 55 19 48
1879 NA NA 09:00:00 TS 28.93 -53.29 1713 1713 _____________P -1 28.93 -53.29 TS 55 18 49
1879 NA NA 12:00:00 TS 29.50 -52.50 1816 1816 _____________O -1 29.50 -52.50 TS 55 17 53
1879 NA NA 15:00:00 TS 29.97 -51.70 1852 1813 _____________P -1 29.97 -51.70 TS 55 17 57
1879 NA NA 18:00:00 TS 30.40 -50.90 1814 1777 _____________O -1 30.40 -50.90 TS 55 16 58
1879 NA NA 21:00:00 TS 30.85 -50.10 1778 1733 _____________P -1 30.85 -50.10 TS 55 16 57
1879 NA NA 1879-10-17 00:00:00 TS 31.30 -49.30 1735 1704 _____________O -1 31.30 -49.30 TS 55 16 57
1879 NA NA 03:00:00 TS 31.74 -48.49 1706 1669 _____________P -1 31.74 -48.49 TS 55 16 57
1879 NA NA 06:00:00 TS 32.20 -47.70 1669 1633 _____________O -1 32.20 -47.70 TS 55 16 54
1879 NA NA 09:00:00 TS 32.71 -46.93 1636 1601 _____________P -1 32.71 -46.93 TS 55 16 52
1879 NA NA 12:00:00 TS 33.20 -46.20 1604 1585 _____________O -1 33.20 -46.20 TS 55 15 54
1879 NA NA 15:00:00 TS 33.58 -45.49 1585 1575 _____________P -1 33.58 -45.49 TS 55 14 59
1879 NA NA 18:00:00 TS 33.90 -44.80 1579 1570 _____________O -1 33.90 -44.80 TS 55 13 62
1879 NA NA 21:00:00 TS 34.20 -44.11 1576 1570 _____________P -1 34.20 -44.11 TS 55 13 63
1879 NA NA 1879-10-18 00:00:00 TS 34.50 -43.40 1576 1569 _____________O -1 34.50 -43.40 TS 55 14 62
1879 NA NA 03:00:00 TS 34.85 -42.65 1583 1573 _____________P -1 34.85 -42.65 TS 55 14 60
1879 NA NA 06:00:00 TS 35.20 -41.90 1579 1574 _____________O -1 35.20 -41.90 TS 55 14 62
1879 NA NA 09:00:00 TS 35.49 -41.19 1587 1587 _____________P -1 35.49 -41.19 TS 55 13 62
1879 NA NA 12:00:00 TS 35.80 -40.50 1597 1594 _____________O -1 35.80 -40.50 TS 55 13 58
1879 NA NA 15:00:00 TS 36.19 -39.81 1601 1598 _____________P -1 36.19 -39.81 TS 55 14 55
1879 NA NA 18:00:00 TS 36.60 -39.10 1608 1606 _____________O -1 36.60 -39.10 TS 55 14 57
1879 NA NA 21:00:00 TS 36.96 -38.35 1624 1624 _____________P -1 36.96 -38.35 TS 55 14 60
1879 NA NA 1879-10-19 00:00:00 TS 37.30 -37.60 1644 1643 _____________O -1 37.30 -37.60 TS 55 13 59
1879 NA NA 03:00:00 TS 37.65 -36.90 1665 1658 _____________P -1 37.65 -36.90 TS 55 13 58
1879 NA NA 06:00:00 TS 38.00 -36.20 1681 1681 _____________O -1 38.00 -36.20 TS 55 13 57
1879 NA NA 09:00:00 TS 38.36 -35.52 1699 1699 _____________P -1 38.36 -35.52 TS 55 14 59
1879 NA NA 12:00:00 TS 38.70 -34.70 1733 1733 _____________O -1 38.70 -34.70 TS 55 17 67
1879 NA NA 15:00:00 TS 39.01 -33.56 1790 1790 _____________P -1 39.01 -33.56 TS 55 20 72
1879 NA NA 18:00:00 TS 39.30 -32.30 1863 1817 _____________O -1 39.30 -32.30 TS 55 20 73
1879 NA NA 21:00:00 TS 39.60 -31.08 1817 1756 _____________P -1 39.60 -31.08 TS 55 19 71
1879 NA NA 1879-10-20 00:00:00 TS 39.90 -30.00 1748 1673 _____________O -1 39.90 -30.00 TS 55 16 67
1879 NA NA 03:00:00 TS 40.21 -29.19 1673 1607 _____________P -1 40.21 -29.19 TS 55 13 62
1879 NA NA 06:00:00 TS 40.50 -28.50 1607 1544 _____________O -1 40.50 -28.50 TS 55 12 63
1879 NA NA 09:00:00 TS 40.76 -27.77 1541 1471 _____________P -1 40.76 -27.77 TS 55 12 66
1879 NA NA 12:00:00 ET 41.00 -27.00 1471 _____________O -1 41.00 -27.00 EX 55 13 68